createdAt,value
2023-02-09T00:00:02.055Z,48.04
2023-02-09T00:01:00.275Z,48.09
2023-02-09T00:02:00.386Z,47.18
2023-02-09T00:03:00.477Z,44.63
2023-02-09T00:04:00.517Z,45.55
2023-02-09T00:05:00.606Z,44.46
2023-02-09T00:06:00.608Z,43.32
2023-02-09T00:07:00.901Z,44.33
2023-02-09T00:08:00.720Z,43.87
2023-02-09T00:09:00.786Z,44.39
2023-02-09T00:10:00.842Z,43.11
2023-02-09T00:11:00.876Z,43.42
2023-02-09T00:12:00.949Z,45.30
2023-02-09T00:13:01.004Z,43.48
2023-02-09T00:14:01.125Z,44.72
2023-02-09T00:15:01.126Z,43.49
2023-02-09T00:16:01.212Z,45.74
2023-02-09T00:17:01.247Z,41.49
2023-02-09T00:18:01.300Z,45.72
2023-02-09T00:19:01.365Z,42.90
2023-02-09T00:20:01.428Z,43.68
2023-02-09T00:21:01.492Z,47.65
2023-02-09T00:22:01.584Z,43.67
2023-02-09T00:23:01.615Z,44.24
2023-02-09T00:24:01.674Z,44.06
2023-02-09T00:25:01.730Z,44.17
2023-02-09T00:26:01.794Z,39.66
2023-02-09T00:27:01.858Z,43.21
2023-02-09T00:28:01.932Z,41.49
2023-02-09T00:29:01.990Z,44.23
2023-02-09T00:30:02.062Z,42.22
2023-02-09T00:31:02.109Z,42.77
2023-02-09T00:32:02.223Z,45.12
2023-02-09T00:33:02.235Z,38.99
2023-02-09T00:34:02.324Z,42.94
2023-02-09T00:35:02.370Z,41.85
2023-02-09T00:36:02.425Z,42.09
2023-02-09T00:37:02.501Z,43.30
2023-02-09T00:38:02.566Z,43.88
2023-02-09T00:39:02.625Z,39.01
2023-02-09T00:40:02.705Z,41.64
2023-02-09T00:41:02.768Z,39.61
2023-02-09T00:42:02.850Z,42.92
2023-02-09T00:43:02.925Z,39.66
2023-02-09T00:44:02.968Z,39.00
2023-02-09T00:45:03.039Z,41.44
2023-02-09T00:46:03.773Z,40.59
2023-02-09T00:47:03.169Z,41.79
2023-02-09T00:48:03.265Z,41.06
2023-02-09T00:49:03.314Z,37.15
2023-02-09T00:50:03.377Z,38.57
2023-02-09T00:51:03.451Z,38.42
2023-02-09T00:52:03.545Z,41.24
2023-02-09T00:53:03.652Z,39.58
2023-02-09T00:54:03.666Z,39.85
2023-02-09T00:55:03.733Z,37.58
2023-02-09T00:56:03.790Z,36.55
2023-02-09T00:57:03.867Z,37.17
2023-02-09T00:58:03.940Z,40.51
2023-02-09T00:59:04.024Z,41.36
2023-02-09T01:00:04.076Z,41.60
2023-02-09T01:01:04.165Z,39.98
2023-02-09T01:02:04.237Z,40.23
2023-02-09T01:03:04.277Z,38.10
2023-02-09T01:04:04.363Z,37.30
2023-02-09T01:05:04.485Z,40.20
2023-02-09T01:06:04.524Z,37.29
2023-02-09T01:07:04.665Z,36.86
2023-02-09T01:08:04.632Z,35.66
2023-02-09T01:09:04.692Z,37.59
2023-02-09T01:10:04.754Z,36.43
2023-02-09T01:11:05.224Z,37.03
2023-02-09T01:12:05.719Z,27.72
2023-02-09T01:13:04.972Z,32.02
2023-02-09T01:14:05.048Z,30.40
2023-02-09T01:15:05.114Z,28.02
2023-02-09T01:16:05.168Z,32.33
2023-02-09T01:17:05.251Z,28.80
2023-02-09T01:18:05.292Z,25.81
2023-02-09T01:19:05.368Z,29.01
2023-02-09T01:20:05.432Z,29.44
2023-02-09T01:21:05.504Z,27.65
2023-02-09T01:22:05.565Z,28.09
2023-02-09T01:23:05.631Z,26.62
2023-02-09T01:24:05.709Z,28.76
2023-02-09T01:25:05.758Z,26.72
2023-02-09T01:26:05.830Z,26.69
2023-02-09T01:27:05.900Z,25.00
2023-02-09T01:28:06.033Z,25.55
2023-02-09T01:29:06.039Z,30.62
2023-02-09T01:30:06.110Z,29.06
2023-02-09T01:31:06.369Z,28.12
2023-02-09T01:32:06.273Z,26.73
2023-02-09T01:33:06.313Z,26.48
2023-02-09T01:34:06.368Z,29.84
2023-02-09T01:35:06.445Z,29.15
2023-02-09T01:36:06.584Z,26.61
2023-02-09T01:37:06.584Z,27.79
2023-02-09T01:38:06.663Z,23.90
2023-02-09T01:39:06.729Z,27.63
2023-02-09T01:40:06.799Z,29.43
2023-02-09T01:41:06.871Z,29.06
2023-02-09T01:42:07.787Z,25.00
2023-02-09T01:43:07.031Z,28.96
2023-02-09T01:44:07.094Z,27.73
2023-02-09T01:45:07.179Z,28.15
2023-02-09T01:46:07.249Z,25.00
2023-02-09T01:47:07.315Z,27.87
2023-02-09T01:48:07.374Z,28.98
2023-02-09T01:49:07.481Z,28.42
2023-02-09T01:50:07.527Z,26.63
2023-02-09T01:51:07.599Z,26.45
2023-02-09T01:52:07.682Z,30.64
2023-02-09T01:53:07.835Z,26.01
2023-02-09T01:54:07.819Z,25.00
2023-02-09T01:55:07.891Z,27.35
2023-02-09T01:56:07.963Z,27.15
2023-02-09T01:57:08.034Z,28.32
2023-02-09T01:58:08.147Z,26.90
2023-02-09T01:59:08.179Z,27.24
2023-02-09T02:00:08.275Z,30.42
2023-02-09T02:01:08.344Z,28.16
2023-02-09T02:02:09.275Z,27.21
2023-02-09T02:03:08.484Z,27.35
2023-02-09T02:04:08.552Z,27.73
2023-02-09T02:05:08.606Z,26.26
2023-02-09T02:06:08.697Z,25.82
2023-02-09T02:07:08.766Z,25.20
2023-02-09T02:08:08.846Z,28.67
2023-02-09T02:09:08.957Z,25.56
2023-02-09T02:10:09.004Z,28.28
2023-02-09T02:11:09.766Z,26.42
2023-02-09T02:12:09.146Z,27.60
2023-02-09T02:13:09.247Z,27.61
2023-02-09T02:14:09.307Z,27.77
2023-02-09T02:15:09.378Z,26.09
2023-02-09T02:16:09.473Z,26.62
2023-02-09T02:17:09.549Z,29.14
2023-02-09T02:18:09.630Z,26.54
2023-02-09T02:19:09.699Z,28.91
2023-02-09T02:20:10.755Z,25.65
2023-02-09T02:21:09.844Z,29.68
2023-02-09T02:22:09.917Z,25.65
2023-02-09T02:23:10.001Z,27.11
2023-02-09T02:24:10.064Z,26.97
2023-02-09T02:25:10.146Z,26.24
2023-02-09T02:26:10.290Z,29.29
2023-02-09T02:27:10.296Z,29.74
2023-02-09T02:28:10.402Z,28.89
2023-02-09T02:29:10.453Z,29.49
2023-02-09T02:30:10.540Z,25.87
2023-02-09T02:31:10.756Z,28.12
2023-02-09T02:32:10.665Z,25.00
2023-02-09T02:33:10.736Z,27.16
2023-02-09T02:34:10.885Z,27.34
2023-02-09T02:35:10.897Z,27.23
2023-02-09T02:36:11.006Z,25.69
2023-02-09T02:37:11.031Z,28.01
2023-02-09T02:38:11.084Z,28.04
2023-02-09T02:39:11.160Z,26.09
2023-02-09T02:40:11.748Z,26.37
2023-02-09T02:41:11.306Z,28.43
2023-02-09T02:42:11.362Z,26.19
2023-02-09T02:43:11.427Z,26.16
2023-02-09T02:44:11.511Z,25.89
2023-02-09T02:45:11.575Z,28.69
2023-02-09T02:46:11.668Z,27.88
2023-02-09T02:47:11.726Z,25.00
2023-02-09T02:48:11.794Z,29.45
2023-02-09T02:49:13.708Z,27.89
2023-02-09T02:50:11.924Z,28.45
2023-02-09T02:51:11.873Z,26.19
2023-02-09T02:52:11.883Z,28.32
2023-02-09T02:53:11.883Z,26.23
2023-02-09T02:54:11.906Z,27.27
2023-02-09T02:55:11.911Z,27.02
2023-02-09T02:56:11.927Z,25.12
2023-02-09T02:57:11.941Z,27.17
2023-02-09T02:58:11.968Z,28.44
2023-02-09T02:59:11.968Z,26.68
2023-02-09T03:00:11.979Z,25.00
2023-02-09T03:01:11.974Z,27.01
2023-02-09T03:02:11.980Z,28.20
2023-02-09T03:03:11.995Z,27.35
2023-02-09T03:04:12.008Z,26.68
2023-02-09T03:05:12.865Z,25.41
2023-02-09T03:06:12.023Z,28.05
2023-02-09T03:07:12.100Z,25.60
2023-02-09T03:08:12.796Z,28.71
2023-02-09T03:09:12.133Z,29.98
2023-02-09T03:10:12.049Z,28.22
2023-02-09T03:11:12.067Z,28.56
2023-02-09T03:12:12.061Z,28.35
2023-02-09T03:13:12.077Z,28.23
2023-02-09T03:14:12.079Z,27.32
2023-02-09T03:15:12.087Z,30.61
2023-02-09T03:16:12.235Z,31.66
2023-02-09T03:17:12.167Z,28.73
2023-02-09T03:18:12.122Z,27.69
2023-02-09T03:19:12.140Z,27.43
2023-02-09T03:20:12.136Z,27.53
2023-02-09T03:21:12.177Z,29.08
2023-02-09T03:22:12.160Z,28.94
2023-02-09T03:23:12.161Z,25.74
2023-02-09T03:24:12.174Z,26.73
2023-02-09T03:25:12.207Z,26.46
2023-02-09T03:26:12.186Z,26.82
2023-02-09T03:27:12.206Z,29.36
2023-02-09T03:28:12.271Z,30.71
2023-02-09T03:29:12.293Z,30.12
2023-02-09T03:30:12.218Z,30.37
2023-02-09T03:31:12.461Z,26.38
2023-02-09T03:32:12.315Z,29.77
2023-02-09T03:33:12.233Z,29.04
2023-02-09T04:23:15.078Z,26.01
2023-02-09T04:24:15.173Z,29.59
2023-02-09T04:25:15.787Z,26.90
2023-02-09T04:26:15.261Z,27.70
2023-02-09T04:27:15.330Z,26.61
2023-02-09T04:28:15.511Z,29.24
2023-02-09T04:29:15.452Z,26.20
2023-02-09T04:30:15.518Z,29.30
2023-02-09T04:31:15.698Z,27.45
2023-02-09T04:32:15.624Z,27.91
2023-02-09T04:33:15.710Z,27.47
2023-02-09T04:34:15.766Z,28.70
2023-02-09T04:35:15.811Z,25.78
2023-02-09T04:36:15.871Z,28.18
2023-02-09T04:37:15.943Z,28.36
2023-02-09T04:38:15.993Z,28.17
2023-02-09T04:39:16.061Z,29.88
2023-02-09T04:40:16.148Z,27.31
2023-02-09T04:41:16.187Z,26.63
2023-02-09T04:42:16.256Z,25.72
2023-02-09T04:43:16.322Z,25.49
2023-02-09T04:44:16.386Z,27.93
2023-02-09T04:45:16.459Z,27.05
2023-02-09T04:46:16.653Z,26.38
2023-02-09T04:47:16.588Z,28.13
2023-02-09T04:48:16.644Z,26.53
2023-02-09T04:49:16.707Z,28.06
2023-02-09T04:50:16.779Z,30.02
2023-02-09T04:51:16.853Z,28.52
2023-02-09T04:52:16.913Z,26.70
2023-02-09T04:53:17.002Z,29.31
2023-02-09T04:54:17.147Z,27.35
2023-02-09T04:55:17.139Z,27.09
2023-02-09T04:56:17.242Z,26.65
2023-02-09T04:57:17.270Z,26.14
2023-02-09T04:58:17.330Z,27.01
2023-02-09T04:59:17.406Z,27.67
2023-02-09T05:00:17.484Z,28.98
2023-02-09T05:01:17.639Z,27.54
2023-02-09T05:02:17.630Z,27.02
2023-02-09T05:03:17.720Z,25.80
2023-02-09T05:04:17.774Z,30.10
2023-02-09T05:05:17.824Z,30.84
2023-02-09T05:06:17.931Z,28.50
2023-02-09T05:07:17.972Z,29.24
2023-02-09T05:08:18.043Z,27.68
2023-02-09T05:09:18.119Z,27.85
2023-02-09T05:10:18.170Z,29.60
2023-02-09T05:11:18.253Z,25.85
2023-02-09T05:12:18.317Z,25.87
2023-02-09T05:13:18.466Z,26.65
2023-02-09T06:42:25.824Z,83.00
2023-02-09T06:45:25.343Z,27.02
2023-02-09T06:49:25.960Z,50.40
2023-02-09T06:50:25.280Z,51.45
2023-02-09T06:51:25.352Z,36.66
2023-02-09T06:52:25.425Z,25.81
2023-02-09T06:53:25.477Z,26.48
2023-02-09T06:54:25.521Z,25.17
2023-02-09T06:55:25.576Z,30.75
2023-02-09T06:56:25.631Z,29.42
2023-02-09T06:57:26.424Z,33.88
2023-02-09T06:58:25.690Z,35.03
2023-02-09T06:59:25.781Z,38.95
2023-02-09T07:00:25.848Z,40.42
2023-02-09T07:01:25.974Z,43.56
2023-02-09T07:02:26.041Z,43.86
2023-02-09T07:03:26.022Z,45.16
2023-02-09T07:04:26.067Z,47.36
2023-02-09T07:05:26.106Z,51.29
2023-02-09T07:06:26.197Z,56.12
2023-02-09T07:07:26.283Z,59.04
2023-02-09T07:08:26.339Z,61.15
2023-02-09T07:09:26.418Z,64.21
2023-02-09T07:10:26.497Z,66.55
2023-02-09T07:11:26.571Z,71.20
2023-02-09T07:12:26.652Z,74.40
2023-02-09T07:13:26.707Z,20.37
2023-02-09T07:14:26.811Z,25.82
2023-02-09T07:15:27.355Z,32.76
2023-02-09T07:16:27.065Z,35.29
2023-02-09T07:17:27.100Z,63.97
2023-02-09T07:18:27.258Z,69.02
2023-02-09T07:19:27.371Z,86.02
2023-02-09T07:20:27.457Z,62.61
2023-02-09T07:21:27.598Z,62.03
2023-02-09T07:22:27.668Z,52.14
2023-02-09T07:23:27.755Z,48.45
2023-02-09T07:24:27.820Z,53.90
2023-02-09T07:25:27.902Z,48.71
2023-02-09T07:26:28.865Z,52.44
2023-02-09T07:27:28.118Z,50.25
2023-02-09T07:28:28.213Z,55.72
2023-02-09T07:29:28.225Z,55.85
2023-02-09T07:30:28.465Z,57.33
2023-02-09T07:31:28.492Z,61.18
2023-02-09T07:32:28.499Z,61.01
2023-02-09T07:33:28.550Z,61.28
2023-02-09T07:34:29.282Z,64.63
2023-02-09T07:35:28.622Z,65.27
2023-02-09T07:36:29.440Z,67.62
2023-02-09T07:37:28.704Z,69.04
2023-02-09T07:38:28.776Z,71.82
2023-02-09T07:39:28.906Z,72.89
2023-02-09T07:40:28.917Z,75.48
2023-02-09T07:41:29.007Z,79.41
2023-02-09T07:42:29.080Z,80.45
2023-02-09T07:43:29.144Z,82.22
2023-02-09T07:44:29.216Z,84.07
2023-02-09T07:45:29.270Z,85.47
2023-02-09T07:46:29.345Z,90.46
2023-02-09T07:47:29.370Z,90.32
2023-02-09T07:48:29.410Z,93.47
2023-02-09T07:49:29.537Z,94.80
2023-02-09T07:50:30.334Z,96.22
2023-02-09T07:51:29.529Z,100.05
2023-02-09T07:52:30.369Z,100.69
2023-02-09T07:53:30.582Z,100.85
2023-02-09T07:54:29.563Z,101.92
2023-02-09T07:55:29.580Z,103.37
2023-02-09T07:56:29.595Z,106.37
2023-02-09T07:57:29.579Z,112.31
2023-02-09T07:58:30.288Z,113.15
2023-02-09T07:59:29.666Z,114.23
2023-02-09T08:00:29.589Z,118.02
2023-02-09T08:01:29.624Z,118.45
2023-02-09T08:02:29.624Z,119.60
2023-02-09T08:03:29.614Z,120.82
2023-02-09T08:04:29.615Z,126.73
2023-02-09T08:05:29.679Z,125.98
2023-02-09T08:06:40.942Z,130.32
2023-02-09T08:07:30.637Z,130.49
2023-02-09T08:08:29.722Z,130.98
2023-02-09T08:09:29.640Z,131.97
2023-02-09T08:10:29.634Z,135.84
2023-02-09T08:11:29.709Z,139.57
2023-02-09T08:12:29.634Z,139.04
2023-02-09T08:13:29.687Z,141.36
2023-02-09T08:14:29.627Z,143.88
2023-02-09T08:15:29.633Z,146.11
2023-02-09T08:16:30.675Z,146.28
2023-02-09T08:17:29.621Z,147.65
2023-02-09T08:18:29.615Z,150.73
2023-02-09T08:19:29.613Z,154.90
2023-02-09T08:20:29.633Z,156.47
2023-02-09T08:21:29.625Z,160.56
2023-02-09T08:22:29.619Z,168.35
2023-02-09T08:23:29.658Z,168.31
2023-02-09T08:24:30.450Z,172.95
2023-02-09T08:25:30.392Z,171.05
2023-02-09T08:26:29.619Z,175.03
2023-02-09T08:27:30.308Z,177.20
2023-02-09T08:28:43.308Z,175.21
2023-02-09T08:29:31.375Z,175.37
2023-02-09T08:30:30.808Z,173.24
2023-02-09T08:31:30.067Z,164.75
2023-02-09T08:32:29.984Z,161.66
2023-02-09T08:33:30.023Z,153.10
2023-02-09T08:34:30.103Z,144.16
2023-02-09T08:35:30.874Z,146.87
2023-02-09T08:36:30.882Z,135.99
2023-02-09T08:37:30.337Z,132.39
2023-02-09T08:38:30.421Z,126.81
2023-02-09T08:39:30.489Z,126.15
2023-02-09T08:40:30.544Z,125.30
2023-02-09T08:41:31.307Z,124.84
2023-02-09T08:42:30.673Z,124.21
2023-02-09T08:43:30.790Z,122.73
2023-02-09T08:44:30.777Z,123.81
2023-02-09T08:45:30.977Z,124.07
2023-02-09T08:46:31.173Z,128.19
2023-02-09T08:47:30.911Z,127.13
2023-02-09T08:48:30.972Z,128.02
2023-02-09T08:49:30.971Z,132.16
2023-02-09T08:50:31.013Z,133.18
2023-02-09T08:51:31.124Z,137.31
2023-02-09T08:52:31.827Z,138.64
2023-02-09T08:53:31.149Z,138.91
2023-02-09T08:54:31.138Z,139.92
2023-02-09T08:55:31.174Z,142.42
2023-02-09T08:56:31.313Z,147.21
2023-02-09T08:57:43.157Z,147.96
2023-02-09T08:58:32.170Z,148.21
2023-02-09T08:59:31.181Z,148.68
2023-02-09T09:00:31.156Z,151.12
2023-02-09T09:01:31.239Z,154.12
2023-02-09T09:02:31.177Z,159.37
2023-02-09T09:03:31.236Z,163.30
2023-02-09T09:04:31.160Z,167.64
2023-02-09T09:05:32.241Z,168.91
2023-02-09T09:06:31.171Z,170.84
2023-02-09T09:07:31.188Z,175.57
2023-02-09T09:08:31.193Z,178.83
2023-02-09T09:09:31.291Z,178.94
2023-02-09T09:10:31.310Z,182.91
2023-02-09T09:11:31.341Z,182.58
2023-02-09T09:12:31.370Z,184.55
2023-02-09T09:13:31.404Z,183.79
2023-02-09T09:14:31.462Z,194.47
2023-02-09T10:00:32.820Z,120.63
2023-02-09T10:01:32.853Z,126.77
2023-02-09T10:03:32.789Z,131.10
2023-02-09T10:04:32.839Z,131.80
2023-02-09T10:06:32.781Z,136.43
2023-02-09T10:09:32.729Z,148.05
2023-02-09T10:10:32.726Z,150.22
2023-02-09T10:11:32.698Z,154.42
2023-02-09T10:36:32.429Z,192.05
2023-02-09T10:52:32.360Z,182.65
2023-02-09T11:04:32.357Z,178.30
2023-02-09T12:26:34.213Z,143.76
2023-02-09T12:27:34.185Z,145.51
2023-02-09T12:29:34.131Z,145.95
2023-02-09T12:37:33.966Z,141.90
2023-02-09T13:20:35.009Z,134.74
2023-02-09T13:30:35.243Z,135.88
2023-02-09T13:31:35.277Z,136.09
2023-02-09T13:32:35.189Z,133.93
2023-02-09T13:33:35.228Z,134.07
2023-02-09T13:34:35.232Z,133.49
2023-02-09T13:35:36.014Z,136.15
2023-02-09T13:36:35.260Z,135.83
2023-02-09T13:37:35.348Z,135.03
2023-02-09T13:38:35.310Z,134.26
2023-02-09T13:39:35.309Z,134.32
2023-02-09T13:40:35.456Z,133.34
2023-02-09T13:41:35.384Z,134.71
2023-02-09T13:42:35.358Z,136.92
2023-02-09T13:43:35.383Z,133.78
2023-02-09T13:44:35.397Z,136.68
2023-02-09T13:45:35.436Z,134.15
2023-02-09T13:46:35.551Z,131.85
2023-02-09T13:47:35.470Z,131.81
2023-02-09T13:48:35.495Z,133.29
2023-02-09T13:49:35.522Z,132.49
2023-02-09T13:50:35.548Z,133.64
2023-02-09T13:51:35.576Z,133.06
2023-02-09T13:52:38.646Z,134.95
2023-02-09T13:53:35.574Z,134.91
2023-02-09T13:54:35.524Z,135.13
2023-02-09T13:55:35.479Z,133.56
2023-02-09T13:56:35.441Z,131.08
2023-02-09T13:57:35.417Z,129.67
2023-02-09T13:58:35.545Z,132.41
2023-02-09T13:59:35.407Z,131.74
2023-02-09T14:00:35.267Z,133.10
2023-02-09T14:01:35.249Z,132.32
2023-02-09T14:02:35.190Z,129.72
2023-02-09T14:03:35.158Z,128.67
2023-02-09T14:04:35.132Z,132.66
2023-02-09T14:05:35.097Z,129.05
2023-02-09T14:06:35.038Z,129.15
2023-02-09T14:07:34.981Z,129.89
2023-02-09T14:08:34.936Z,128.26
2023-02-09T14:09:34.919Z,131.33
2023-02-09T14:10:35.506Z,130.92
2023-02-09T14:11:42.206Z,128.46
2023-02-09T14:12:35.767Z,128.59
2023-02-09T14:13:34.741Z,129.12
2023-02-09T14:14:34.690Z,128.76
2023-02-09T14:15:34.651Z,129.75
2023-02-09T14:16:44.637Z,130.28
2023-02-09T14:17:35.624Z,128.65
2023-02-09T14:18:34.535Z,128.98
2023-02-09T14:19:34.556Z,129.22
2023-02-09T14:20:34.458Z,129.47
2023-02-09T14:21:34.431Z,128.75
2023-02-09T14:22:34.395Z,129.70
2023-02-09T14:23:34.418Z,128.60
2023-02-09T14:24:34.361Z,129.67
2023-02-09T14:25:34.286Z,129.56
2023-02-09T14:26:34.382Z,131.42
2023-02-09T14:27:34.219Z,127.41
2023-02-09T14:28:34.251Z,129.18
2023-02-09T14:29:34.512Z,130.60
2023-02-09T14:30:34.177Z,128.75
2023-02-09T14:31:34.085Z,127.64
2023-02-09T14:32:34.110Z,128.59
2023-02-09T14:33:34.142Z,130.17
2023-02-09T14:34:34.177Z,130.65
2023-02-09T14:35:34.192Z,130.02
2023-02-09T14:36:34.231Z,131.15
2023-02-09T14:37:34.275Z,130.31
2023-02-09T14:38:34.306Z,130.31
2023-02-09T14:39:34.373Z,129.06
2023-02-09T14:40:34.442Z,129.77
2023-02-09T14:41:34.421Z,128.97
2023-02-09T14:42:34.473Z,128.57
2023-02-09T14:43:34.506Z,129.68
2023-02-09T14:44:34.636Z,128.76
2023-02-09T14:45:35.559Z,128.90
2023-02-09T14:46:34.551Z,128.90
2023-02-09T14:47:34.497Z,128.86
2023-02-09T14:48:34.470Z,127.56
2023-02-09T14:49:34.435Z,128.24
2023-02-09T14:50:34.412Z,126.88
2023-02-09T14:51:34.389Z,128.21
2023-02-09T14:52:34.430Z,126.30
2023-02-09T14:53:34.474Z,126.16
2023-02-09T14:54:34.514Z,127.08
2023-02-09T14:55:34.527Z,126.89
2023-02-09T14:56:34.578Z,124.30
2023-02-09T14:57:34.531Z,126.45
2023-02-09T14:58:34.533Z,123.32
2023-02-09T14:59:34.569Z,122.92
2023-02-09T15:00:34.509Z,125.08
2023-02-09T15:01:34.536Z,123.58
2023-02-09T15:02:34.521Z,123.20
2023-02-09T15:03:34.467Z,121.36
2023-02-09T15:04:34.452Z,123.70
2023-02-09T15:05:35.029Z,122.25
2023-02-09T15:06:34.411Z,120.62
2023-02-09T15:07:34.416Z,121.21
2023-02-09T15:08:34.428Z,120.40
2023-02-09T15:09:34.414Z,120.80
2023-02-09T15:10:34.418Z,119.60
2023-02-09T15:11:34.470Z,119.42
2023-02-09T15:12:34.421Z,119.03
2023-02-09T15:13:34.427Z,119.55
2023-02-09T15:14:34.434Z,118.88
2023-02-09T15:15:34.503Z,118.50
2023-02-09T15:16:34.458Z,119.97
2023-02-09T15:17:34.490Z,120.25
2023-02-09T15:18:34.481Z,121.31
2023-02-09T15:19:34.477Z,116.85
2023-02-09T15:20:35.042Z,120.36
2023-02-09T15:21:34.520Z,119.18
2023-02-09T15:22:34.524Z,120.38
2023-02-09T15:23:34.562Z,120.63
2023-02-09T15:24:34.572Z,118.22
2023-02-09T15:25:34.668Z,118.07
2023-02-09T15:26:34.625Z,120.10
2023-02-09T15:27:34.647Z,119.62
2023-02-09T15:28:34.732Z,120.22
2023-02-09T15:29:34.719Z,118.88
2023-02-09T15:30:34.764Z,118.58
2023-02-09T15:31:34.810Z,117.45
2023-02-09T15:32:34.825Z,117.88
2023-02-09T15:33:34.860Z,118.14
2023-02-09T15:34:34.900Z,121.61
2023-02-09T15:35:34.960Z,119.60
2023-02-09T15:36:34.977Z,119.38
2023-02-09T15:37:35.016Z,118.99
2023-02-09T15:38:35.069Z,119.57
2023-02-09T15:39:35.109Z,117.40
2023-02-09T15:40:35.158Z,118.79
2023-02-09T15:41:36.350Z,118.55
2023-02-09T15:42:35.248Z,122.66
2023-02-09T15:43:35.302Z,118.33
2023-02-09T15:44:35.352Z,119.39
2023-02-09T15:45:35.403Z,119.87
2023-02-09T15:46:35.480Z,120.68
2023-02-09T15:47:35.526Z,117.78
2023-02-09T15:48:35.571Z,118.30
2023-02-09T15:49:35.633Z,117.87
2023-02-09T15:50:35.689Z,120.88
2023-02-09T15:51:35.774Z,118.01
2023-02-09T15:52:35.827Z,119.11
2023-02-09T15:53:35.895Z,120.96
2023-02-09T15:54:35.976Z,117.79
2023-02-09T15:55:36.019Z,118.43
2023-02-09T15:56:36.106Z,118.87
2023-02-09T15:57:36.156Z,117.01
2023-02-09T15:58:36.268Z,116.05
2023-02-09T15:59:36.561Z,120.77
2023-02-09T16:00:36.357Z,120.20
2023-02-09T16:01:36.453Z,118.46
2023-02-09T16:02:36.615Z,118.24
2023-02-09T16:03:36.527Z,116.27
2023-02-09T16:04:36.604Z,121.03
2023-02-09T16:05:36.651Z,118.62
2023-02-09T16:06:36.727Z,117.85
2023-02-09T16:07:36.760Z,116.58
2023-02-09T16:08:37.054Z,114.69
2023-02-09T16:09:36.837Z,117.15
2023-02-09T16:10:36.843Z,116.22
2023-02-09T16:11:36.856Z,119.67
2023-02-09T16:12:36.905Z,114.84
2023-02-09T16:13:36.937Z,118.53
2023-02-09T16:14:36.924Z,118.78
2023-02-09T16:15:36.951Z,119.59
2023-02-09T16:16:37.070Z,119.78
2023-02-09T16:17:37.000Z,116.78
2023-02-09T16:18:37.032Z,117.84
2023-02-09T16:19:37.043Z,115.71
2023-02-09T16:20:37.057Z,118.08
2023-02-09T16:21:37.095Z,117.88
2023-02-09T16:23:37.088Z,118.43
2023-02-09T16:24:38.059Z,117.99
2023-02-09T16:25:37.184Z,113.53
2023-02-09T16:26:37.096Z,115.06
2023-02-09T16:27:37.116Z,118.69
2023-02-09T16:28:37.135Z,119.09
2023-02-09T16:29:37.180Z,120.57
2023-02-09T16:30:37.153Z,121.57
2023-02-09T16:31:37.239Z,115.96
2023-02-09T16:32:37.175Z,117.46
2023-02-09T16:33:37.198Z,121.53
2023-02-09T16:34:37.197Z,119.41
2023-02-09T16:35:37.212Z,116.69
2023-02-09T16:57:37.806Z,119.82
2023-02-09T17:08:38.161Z,120.33
2023-02-09T17:20:38.616Z,123.59
2023-02-09T19:42:45.157Z,130.51
2023-02-09T19:43:45.216Z,133.52
2023-02-09T19:44:45.268Z,134.42
2023-02-09T19:45:45.624Z,134.42
2023-02-09T19:46:45.471Z,130.01
2023-02-09T19:47:45.422Z,130.33
2023-02-09T19:48:45.462Z,130.87
2023-02-09T19:49:45.512Z,128.45
2023-02-09T19:50:45.565Z,131.95
2023-02-09T19:51:45.611Z,131.91
2023-02-09T19:52:45.728Z,132.90
2023-02-09T19:53:45.708Z,132.34
2023-02-09T19:54:45.756Z,126.98
2023-02-09T19:55:46.031Z,130.75
2023-02-09T19:56:45.856Z,132.52
2023-02-09T19:57:45.897Z,134.86
2023-02-09T19:58:45.959Z,131.00
2023-02-09T19:59:46.017Z,131.56
2023-02-09T20:00:46.069Z,133.28
2023-02-09T20:01:46.138Z,131.95
2023-02-09T20:02:46.264Z,134.48
2023-02-09T20:04:46.284Z,133.61
2023-02-09T20:05:46.657Z,133.76
2023-02-09T20:06:46.370Z,131.45
2023-02-09T20:07:46.438Z,133.94
2023-02-09T20:09:46.561Z,133.64
2023-02-09T20:10:46.944Z,132.04
2023-02-09T20:11:46.643Z,133.82
2023-02-09T20:12:46.732Z,134.33
2023-02-09T20:13:46.828Z,134.55
2023-02-09T20:14:46.828Z,135.07
2023-02-09T20:15:47.134Z,133.87
2023-02-09T20:16:47.029Z,130.05
2023-02-09T22:20:55.496Z,113.06
